»·PEaware :: SKY5BJ KSBP-KOAR

SKY5BJ :: KSBP-KOAR

FLIGHT INFORMATION

Flight Status: Arrived
Operator:
Sky High Charters
More flights by this operator :: More flights under this callsign
Pilot: Daniel G. (31975)
Aircraft: CIRRUS SR-22 TURBO
(S22T)
More flights by this aircraft type
Origin: KSBP San Luis Co Regl
United States
Destination: KOAR Marina
United States
More flights between these airports :: More routes between these airports
Route: CREPE3 PRB V248 SARDO HAGRO
File this flight plan on PilotEdge
Remarks:
Altitude:
(Current/Filed)
8,000ft
Speed:
(Current/Filed)
170kts
Departed: 11-Jan-21 08:35 PM
Arrived: 11-Jan-21 09:19 PM
Distance/Time
Traveled:
103nm/0:43
Distance/Time
To Go:
Arrived

Flight Plot

Page will automatically refresh every two minutes.

Flight plan parsing failed; only flown route is shown


Map Options




Map Legend


Flown Route
Filed Route
Departure Airport
Arrival Airport
Navaid (VOR, NDB)
Fix

Horizontal Profiles

Position Reports

Time Latitude Longitude Heading Altitude Ground
Speed
11-Jan-21 20:11 35.237731 -120.646396 269 215ft 0kts
11-Jan-21 20:12 35.237731 -120.646396 269 215ft 0kts
11-Jan-21 20:13 35.237731 -120.646396 269 215ft 0kts
11-Jan-21 20:14 35.237731 -120.646396 269 215ft 0kts
11-Jan-21 20:15 35.237731 -120.646396 269 215ft 0kts
11-Jan-21 20:16 35.237731 -120.646396 269 215ft 0kts
11-Jan-21 20:17 35.237731 -120.646396 269 215ft 0kts
11-Jan-21 20:18 35.237731 -120.646396 269 215ft 0kts
11-Jan-21 20:19 35.237731 -120.646396 269 215ft 0kts
11-Jan-21 20:20 35.237731 -120.646396 269 215ft 0kts
11-Jan-21 20:21 35.237731 -120.646396 269 215ft 0kts
11-Jan-21 20:22 35.237731 -120.646396 269 215ft 0kts
11-Jan-21 20:23 35.237731 -120.646396 269 215ft 0kts
11-Jan-21 20:24 35.237731 -120.646396 269 215ft 0kts
11-Jan-21 20:25 35.237451 -120.645836 86 215ft 9kts
11-Jan-21 20:26 35.237773 -120.641966 88 215ft 12kts
11-Jan-21 20:27 35.235769 -120.636355 125 215ft 18kts
11-Jan-21 20:28 35.233124 -120.632113 247 215ft 0kts
11-Jan-21 20:29 35.233124 -120.632113 247 215ft 0kts
11-Jan-21 20:30 35.233124 -120.632113 247 215ft 0kts
11-Jan-21 20:31 35.233124 -120.632113 247 215ft 0kts
11-Jan-21 20:32 35.233155 -120.632351 220 215ft 0kts
11-Jan-21 20:33 35.232946 -120.632567 220 215ft 6kts
11-Jan-21 20:34 35.239867 -120.645627 306 721ft 101kts
11-Jan-21 20:35 35.256395 -120.681762 302 2375ft 126kts
11-Jan-21 20:36 35.276202 -120.716349 305 3833ft 126kts
11-Jan-21 20:37 35.303107 -120.736030 17 4995ft 129kts
11-Jan-21 20:38 35.337818 -120.723697 12 6162ft 131kts
11-Jan-21 20:39 35.373353 -120.713022 11 7241ft 132kts
11-Jan-21 20:40 35.410116 -120.702424 11 8002ft 149kts
11-Jan-21 20:41 35.454107 -120.689807 11 7989ft 169kts
11-Jan-21 20:42 35.500803 -120.676435 12 7983ft 173kts
11-Jan-21 20:43 35.547414 -120.663075 12 7990ft 172kts
11-Jan-21 20:44 35.594167 -120.649663 12 7990ft 172kts
11-Jan-21 20:45 35.640845 -120.636260 12 7990ft 172kts
11-Jan-21 20:46 35.687407 -120.633276 342 7994ft 172kts
11-Jan-21 20:47 35.733069 -120.651345 342 7990ft 172kts
11-Jan-21 20:48 35.778653 -120.669521 342 7990ft 172kts
11-Jan-21 20:49 35.824350 -120.687779 342 7990ft 172kts
11-Jan-21 20:50 35.869963 -120.706027 342 7990ft 172kts
11-Jan-21 20:51 35.915539 -120.724289 342 7989ft 172kts
11-Jan-21 20:52 35.961229 -120.742607 342 7989ft 172kts
11-Jan-21 20:53 36.006806 -120.760902 342 7989ft 172kts
11-Jan-21 20:54 36.052559 -120.779294 342 7989ft 174kts
11-Jan-21 20:55 36.095001 -120.805257 311 7995ft 176kts
11-Jan-21 20:56 36.126088 -120.852114 310 7991ft 176kts
11-Jan-21 20:57 36.157095 -120.899112 310 7991ft 176kts
11-Jan-21 20:58 36.188005 -120.946049 310 7991ft 176kts
11-Jan-21 20:59 36.218839 -120.992920 310 7992ft 175kts
11-Jan-21 21:00 36.249492 -121.039590 309 7993ft 174kts
11-Jan-21 21:01 36.280057 -121.086195 309 7995ft 173kts
11-Jan-21 21:02 36.310488 -121.132664 308 7997ft 173kts
11-Jan-21 21:03 36.340857 -121.179101 308 7998ft 173kts
11-Jan-21 21:04 36.371278 -121.225704 307 7999ft 174kts
11-Jan-21 21:05 36.401664 -121.272295 308 8007ft 173kts
11-Jan-21 21:06 36.432273 -121.319263 308 7841ft 181kts
11-Jan-21 21:07 36.464938 -121.369485 307 7190ft 190kts
11-Jan-21 21:08 36.498147 -121.420634 307 6489ft 190kts
11-Jan-21 21:09 36.528843 -121.467859 309 5748ft 165kts
11-Jan-21 21:10 36.563068 -121.505012 317 5032ft 161kts
11-Jan-21 21:11 36.591406 -121.546096 289 4316ft 155kts
11-Jan-21 21:12 36.604876 -121.588539 289 3317ft 112kts
11-Jan-21 21:13 36.617772 -121.629349 289 2560ft 136kts
11-Jan-21 21:14 36.634772 -121.671310 300 1859ft 122kts
11-Jan-21 21:15 36.651779 -121.704119 300 1137ft 97kts
11-Jan-21 21:16 36.665854 -121.731370 299 644ft 96kts
11-Jan-21 21:17 36.678896 -121.756633 298 157ft 80kts
11-Jan-21 21:18 36.683366 -121.767137 210 134ft 0kts
11-Jan-21 21:19 36.683366 -121.767137 210 134ft 0kts
11-Jan-21 21:20 36.683366 -121.767137 210 134ft 0kts

Navigation Log

Ident Type
Flight plan parsing failed, navigation log unavailable